createdAt,value
2023-05-04T00:00:11.055Z,100766.69
2023-05-04T00:02:38.996Z,100769.00
2023-05-04T00:05:08.436Z,100773.16
2023-05-04T00:07:36.455Z,100776.09
2023-05-04T00:10:04.945Z,100769.03
2023-05-04T00:12:34.585Z,100772.25
2023-05-04T00:15:02.387Z,100757.03
2023-05-04T00:17:30.109Z,100742.97
2023-05-04T00:19:58.344Z,100733.75
2023-05-04T00:22:26.061Z,100723.78
2023-05-04T00:24:53.737Z,100718.38
2023-05-04T00:27:21.739Z,100717.53
2023-05-04T00:29:50.817Z,100731.75
2023-05-04T00:32:18.578Z,100729.22
2023-05-04T00:34:46.321Z,100723.19
2023-05-04T00:37:14.004Z,100717.03
2023-05-04T00:39:41.677Z,100714.31
2023-05-04T00:42:09.503Z,100710.53
2023-05-04T00:44:41.107Z,100704.28
2023-05-04T00:47:10.507Z,100701.09
2023-05-04T00:49:38.772Z,100699.38
2023-05-04T00:52:07.801Z,100694.69
2023-05-04T00:54:35.883Z,100692.50
2023-05-04T00:57:04.505Z,100679.00
2023-05-04T00:59:32.199Z,100661.84
2023-05-04T01:01:59.856Z,100649.31
2023-05-04T01:04:29.194Z,100636.91
2023-05-04T01:07:04.744Z,100636.59
2023-05-04T01:09:38.093Z,100637.06
2023-05-04T01:12:08.304Z,100634.75
2023-05-04T01:14:37.439Z,100635.47
2023-05-04T01:17:07.412Z,100621.16
2023-05-04T01:19:36.641Z,100615.13
2023-05-04T01:22:05.800Z,100612.81
2023-05-04T01:24:34.052Z,100608.00
2023-05-04T01:27:06.707Z,100605.94
2023-05-04T01:29:43.698Z,100588.06
2023-05-04T01:32:13.729Z,100585.59
2023-05-04T01:34:42.200Z,100584.34
2023-05-04T01:37:11.746Z,100588.53
2023-05-04T01:39:39.836Z,100583.84
2023-05-04T01:42:08.270Z,100574.44
2023-05-04T01:44:36.052Z,100574.31
2023-05-04T01:47:04.170Z,100571.84
2023-05-04T01:49:31.926Z,100573.09
2023-05-04T01:51:59.710Z,100578.97
2023-05-04T01:54:28.762Z,100582.16
2023-05-04T01:56:56.483Z,100574.81
2023-05-04T01:59:24.280Z,100567.94
2023-05-04T02:01:52.088Z,100572.09
2023-05-04T02:04:19.962Z,100585.81
2023-05-04T02:06:47.854Z,100592.72
2023-05-04T02:09:15.651Z,100599.31
2023-05-04T02:11:44.712Z,100596.63
2023-05-04T02:14:12.395Z,100600.28
2023-05-04T02:16:40.170Z,100616.44
2023-05-04T02:19:08.005Z,100621.00
2023-05-04T02:21:35.949Z,100611.53
2023-05-04T02:24:06.218Z,100604.72
2023-05-04T02:26:34.150Z,100601.66
2023-05-04T02:29:05.001Z,100593.19
2023-05-04T02:31:32.809Z,100593.19
2023-05-04T02:34:01.324Z,100599.31
2023-05-04T02:36:29.145Z,100602.00
2023-05-04T02:38:56.865Z,100597.59
2023-05-04T02:41:24.580Z,100596.13
2023-05-04T02:43:52.331Z,100585.47
2023-05-04T02:46:21.451Z,100583.16
2023-05-04T02:48:49.260Z,100579.22
2023-05-04T02:51:17.024Z,100586.91
2023-05-04T02:53:44.722Z,100585.09
2023-05-04T02:56:12.403Z,100571.38
2023-05-04T02:58:40.156Z,100564.50
2023-05-04T03:01:07.970Z,100568.22
2023-05-04T03:03:37.151Z,100552.19
2023-05-04T03:06:05.363Z,100546.53
2023-05-04T03:08:33.106Z,100544.03
2023-05-04T03:11:00.956Z,100534.06
2023-05-04T03:13:28.695Z,100529.91
2023-05-04T03:15:56.504Z,100526.28
2023-05-04T03:18:24.387Z,100527.28
2023-05-04T03:20:53.485Z,100529.38
2023-05-04T03:23:21.252Z,100513.84
2023-05-04T03:25:49.013Z,100513.47
2023-05-04T03:28:16.788Z,100508.34
2023-05-04T03:30:44.483Z,100499.69
2023-05-04T03:33:12.250Z,100484.00
2023-05-04T03:35:39.954Z,100495.69
2023-05-04T03:38:09.939Z,100498.28
2023-05-04T03:40:37.960Z,100500.03
2023-05-04T03:43:05.709Z,100504.56
2023-05-04T03:45:33.423Z,100505.63
2023-05-04T03:48:01.219Z,100505.38
2023-05-04T03:50:29.076Z,100510.19
2023-05-04T03:52:57.040Z,100528.75
2023-05-04T03:55:26.310Z,100532.75
2023-05-04T03:57:54.047Z,100529.00
2023-05-04T04:00:21.938Z,100539.03
2023-05-04T04:02:49.725Z,100544.19
2023-05-04T04:05:17.576Z,100541.97
2023-05-04T04:07:45.254Z,100543.91
2023-05-04T04:10:12.987Z,100549.56
2023-05-04T04:12:42.325Z,100562.53
2023-05-04T04:15:10.689Z,100559.31
2023-05-04T04:17:38.475Z,100564.38
2023-05-04T04:20:07.518Z,100563.41
2023-05-04T04:22:35.449Z,100556.31
2023-05-04T04:25:03.417Z,100550.53
2023-05-04T04:27:31.274Z,100555.94
2023-05-04T04:30:00.666Z,100557.75
2023-05-04T04:32:29.076Z,100558.84
2023-05-04T04:34:56.932Z,100565.34
2023-05-04T04:37:24.614Z,100561.81
2023-05-04T04:39:52.295Z,100575.66
2023-05-04T04:42:20.114Z,100579.34
2023-05-04T04:44:49.429Z,100593.19
2023-05-04T04:47:18.877Z,100595.63
2023-05-04T04:49:46.590Z,100596.00
2023-05-04T04:52:15.588Z,100582.00
2023-05-04T04:54:43.802Z,100562.81
2023-05-04T04:57:11.595Z,100590.16
2023-05-04T04:59:39.356Z,100587.31
2023-05-04T05:02:07.199Z,100571.38
2023-05-04T05:04:36.415Z,100581.53
2023-05-04T05:07:04.168Z,100576.28
2023-05-04T05:09:31.829Z,100566.84
2023-05-04T05:11:59.582Z,100555.47
2023-05-04T05:14:27.498Z,100525.19
2023-05-04T05:16:55.316Z,100545.13
2023-05-04T05:19:23.112Z,100568.78
2023-05-04T05:21:52.394Z,100560.81
2023-05-04T05:24:21.290Z,100523.94
2023-05-04T05:26:49.008Z,100516.13
2023-05-04T05:29:16.724Z,100513.94
2023-05-04T05:31:44.418Z,100528.41
2023-05-04T05:34:12.332Z,100552.66
2023-05-04T05:36:40.471Z,100557.88
2023-05-04T05:39:09.526Z,100609.06
2023-05-04T05:41:37.255Z,100644.13
2023-05-04T05:44:05.569Z,100620.38
2023-05-04T05:46:33.402Z,100620.19
2023-05-04T05:49:01.186Z,100591.59
2023-05-04T05:51:28.861Z,100596.59
2023-05-04T05:53:56.549Z,100578.88
2023-05-04T05:56:25.748Z,100567.53
2023-05-04T05:58:53.659Z,100598.50
2023-05-04T06:01:21.384Z,100637.84
2023-05-04T06:03:49.340Z,100667.31
2023-05-04T06:06:17.293Z,100655.13
2023-05-04T06:08:44.975Z,100613.31
2023-05-04T06:11:12.702Z,100599.16
2023-05-04T06:13:41.835Z,100600.59
2023-05-04T06:16:09.591Z,100612.44
2023-05-04T06:18:37.332Z,100643.44
2023-05-04T06:21:05.330Z,100688.69
2023-05-04T06:23:33.018Z,100669.41
2023-05-04T06:26:00.893Z,100666.91
2023-05-04T06:28:28.604Z,100659.00
2023-05-04T06:30:57.927Z,100662.16
2023-05-04T06:33:25.769Z,100680.44
2023-05-04T06:35:53.703Z,100663.25
2023-05-04T06:38:21.654Z,100646.13
2023-05-04T06:40:49.589Z,100617.66
2023-05-04T06:43:17.286Z,100606.03
2023-05-04T06:45:45.059Z,100607.00
2023-05-04T06:48:14.937Z,100593.63
2023-05-04T06:50:42.736Z,100586.47
2023-05-04T06:53:11.708Z,100616.19
2023-05-04T06:55:39.446Z,100617.97
2023-05-04T06:58:07.271Z,100623.00
2023-05-04T07:00:36.161Z,100633.53
2023-05-04T07:03:03.985Z,100637.50
2023-05-04T07:05:35.409Z,100630.09
2023-05-04T07:08:03.230Z,100642.97
2023-05-04T07:10:31.515Z,100669.09
2023-05-04T07:12:59.482Z,100694.28
2023-05-04T07:15:27.192Z,100698.75
2023-05-04T07:17:54.897Z,100702.84
2023-05-04T07:20:25.641Z,100702.19
2023-05-04T07:22:56.870Z,100697.84
2023-05-04T07:25:25.151Z,100679.22
2023-05-04T07:27:52.949Z,100701.25
2023-05-04T07:30:21.585Z,100740.94
2023-05-04T07:32:49.429Z,100722.59
2023-05-04T07:35:17.251Z,100705.69
2023-05-04T07:37:45.001Z,100654.09
2023-05-04T07:40:15.570Z,100588.66
2023-05-04T07:42:43.463Z,100560.94
2023-05-04T07:45:11.827Z,100589.88
2023-05-04T07:47:39.582Z,100601.75
2023-05-04T07:50:08.552Z,100647.81
2023-05-04T07:52:36.459Z,100708.03
2023-05-04T07:55:04.328Z,100703.25
2023-05-04T07:57:35.643Z,100731.06
2023-05-04T08:00:05.114Z,100729.63
2023-05-04T08:02:33.037Z,100725.13
2023-05-04T08:05:00.857Z,100729.78
2023-05-04T08:07:28.680Z,100718.72
2023-05-04T08:09:57.159Z,100683.31
2023-05-04T08:12:26.956Z,100634.75
2023-05-04T08:14:56.056Z,100677.28
2023-05-04T08:17:23.754Z,100723.66
2023-05-04T08:19:51.884Z,100693.75
2023-05-04T08:22:19.850Z,100685.50
2023-05-04T08:24:48.116Z,100678.53
2023-05-04T08:27:15.891Z,100692.25
2023-05-04T08:29:43.900Z,100688.97
2023-05-04T08:32:13.323Z,100693.38
2023-05-04T08:34:41.019Z,100700.84
2023-05-04T08:37:08.760Z,100708.09
2023-05-04T08:39:36.541Z,100713.34
2023-05-04T08:42:04.310Z,100710.41
2023-05-04T08:44:32.172Z,100720.69
2023-05-04T08:47:00.265Z,100721.72
2023-05-04T08:49:30.577Z,100708.69
2023-05-04T08:52:00.196Z,100720.47
2023-05-04T08:54:29.711Z,100724.72
2023-05-04T08:56:58.802Z,100722.44
2023-05-04T08:59:29.316Z,100720.13
2023-05-04T09:01:59.598Z,100726.44
2023-05-04T09:04:29.774Z,100738.25
2023-05-04T09:06:58.452Z,100731.22
2023-05-04T09:09:28.743Z,100737.53
2023-05-04T09:11:56.733Z,100734.31
2023-05-04T09:14:33.637Z,100736.16
2023-05-04T09:17:01.493Z,100741.25
2023-05-04T09:19:33.703Z,100739.19
2023-05-04T09:22:01.808Z,100745.19
2023-05-04T09:24:30.191Z,100751.56
2023-05-04T09:27:10.577Z,100754.38
2023-05-04T09:29:39.766Z,100761.34
2023-05-04T09:32:07.765Z,100768.41
2023-05-04T09:34:37.454Z,100765.44
2023-05-04T09:37:05.177Z,100761.53
2023-05-04T09:39:32.897Z,100775.75
2023-05-04T09:42:00.864Z,100771.00
2023-05-04T09:44:29.775Z,100773.88
2023-05-04T09:46:58.832Z,100781.38
2023-05-04T09:49:33.389Z,100777.72
2023-05-04T09:52:03.630Z,100793.69
2023-05-04T09:54:34.892Z,100795.22
2023-05-04T09:57:11.422Z,100800.66
2023-05-04T09:59:39.226Z,100795.25
2023-05-04T10:02:21.278Z,100800.06
2023-05-04T10:04:51.650Z,100808.66
2023-05-04T10:07:21.737Z,100814.16
2023-05-04T10:09:50.250Z,100810.09
2023-05-04T10:12:18.428Z,100813.34
2023-05-04T10:14:47.181Z,100807.19
2023-05-04T10:17:24.937Z,100813.91
2023-05-04T10:20:07.506Z,100808.16
2023-05-04T10:22:52.377Z,100817.84
2023-05-04T10:25:42.095Z,100815.97
2023-05-04T10:28:22.301Z,100825.81
2023-05-04T10:30:57.000Z,100818.06
2023-05-04T10:33:24.786Z,100816.88
2023-05-04T10:35:53.863Z,100827.66
2023-05-04T10:38:33.065Z,100830.91
2023-05-04T10:41:00.797Z,100818.19
2023-05-04T10:43:29.931Z,100836.09
2023-05-04T10:45:58.676Z,100840.22
2023-05-04T10:48:35.377Z,100846.88
2023-05-04T10:51:04.433Z,100843.06
2023-05-04T10:53:34.276Z,100840.34
2023-05-04T10:56:02.783Z,100847.09
2023-05-04T10:58:30.915Z,100841.00
2023-05-04T11:00:58.745Z,100843.56
2023-05-04T11:03:26.888Z,100841.25
2023-05-04T11:05:55.426Z,100837.81
2023-05-04T11:08:24.394Z,100845.53
2023-05-04T11:11:03.813Z,100845.81
2023-05-04T11:13:32.077Z,100851.78
2023-05-04T11:15:59.786Z,100844.59
2023-05-04T11:18:28.926Z,100844.91
2023-05-04T11:20:57.018Z,100843.31
2023-05-04T11:23:25.169Z,100848.16
2023-05-04T11:25:53.626Z,100840.00
2023-05-04T11:28:32.650Z,100842.72
2023-05-04T11:31:00.370Z,100851.72
2023-05-04T11:33:29.621Z,100851.53
2023-05-04T11:36:02.264Z,100849.28
2023-05-04T11:38:30.199Z,100851.03
2023-05-04T11:40:58.007Z,100851.59
2023-05-04T11:43:27.367Z,100854.03
2023-05-04T11:45:57.964Z,100864.03
2023-05-04T11:48:26.218Z,100861.31
2023-05-04T11:50:55.212Z,100861.16
2023-05-04T11:53:23.262Z,100860.06
2023-05-04T11:55:52.401Z,100863.09
2023-05-04T11:58:25.680Z,100863.22
2023-05-04T12:00:58.873Z,100863.22
2023-05-04T12:03:35.976Z,100868.81
2023-05-04T12:06:16.022Z,100870.22
2023-05-04T12:08:44.047Z,100875.69
2023-05-04T12:11:16.406Z,100878.38
2023-05-04T12:13:46.020Z,100889.94
2023-05-04T12:16:16.382Z,100890.75
2023-05-04T12:18:45.359Z,100892.28
2023-05-04T12:21:14.579Z,100879.63
2023-05-04T12:23:42.977Z,100893.41
2023-05-04T12:26:11.652Z,100886.81
2023-05-04T12:28:40.607Z,100899.31
2023-05-04T12:31:08.850Z,100902.88
2023-05-04T12:33:37.947Z,100899.91
2023-05-04T12:36:06.403Z,100908.13
2023-05-04T12:38:34.390Z,100909.56
2023-05-04T12:41:04.384Z,100912.59
2023-05-04T12:43:33.133Z,100912.97
2023-05-04T12:46:01.243Z,100917.56
2023-05-04T12:48:31.886Z,100916.25
2023-05-04T12:51:01.860Z,100915.50
2023-05-04T12:53:31.927Z,100915.94
2023-05-04T12:56:01.238Z,100920.81
2023-05-04T12:58:29.122Z,100931.06
2023-05-04T13:00:57.813Z,100937.59
2023-05-04T13:03:25.682Z,100930.59
2023-05-04T13:05:53.610Z,100943.06
2023-05-04T13:08:22.648Z,100940.22
2023-05-04T13:10:50.354Z,100945.84
2023-05-04T13:13:21.251Z,100937.97
2023-05-04T13:15:51.073Z,100930.81
2023-05-04T13:18:18.953Z,100940.41
2023-05-04T13:20:46.862Z,100946.91
2023-05-04T13:23:15.276Z,100940.88
2023-05-04T13:25:44.364Z,100941.06
2023-05-04T13:28:12.099Z,100934.16
2023-05-04T13:30:39.881Z,100948.44
2023-05-04T13:33:16.814Z,100937.28
2023-05-04T13:35:49.021Z,100927.50
2023-05-04T13:38:16.898Z,100936.66
2023-05-04T13:40:45.950Z,100942.59
2023-05-04T13:43:13.723Z,100939.09
2023-05-04T13:45:41.427Z,100938.44
2023-05-04T13:48:09.171Z,100935.03
2023-05-04T13:50:36.987Z,100938.81
2023-05-04T13:53:04.729Z,100935.66
2023-05-04T13:55:32.498Z,100948.31
2023-05-04T13:58:01.745Z,100942.72
2023-05-04T14:00:29.582Z,100946.13
2023-05-04T14:02:57.562Z,100941.00
2023-05-04T14:05:25.683Z,100941.69
2023-05-04T14:07:53.730Z,100935.44
2023-05-04T14:10:21.597Z,100955.59
2023-05-04T14:12:49.424Z,100946.13
2023-05-04T14:15:22.413Z,100941.00
2023-05-04T14:17:49.981Z,100942.72
2023-05-04T14:20:18.018Z,100945.16
2023-05-04T14:22:46.321Z,100943.38
2023-05-04T14:25:14.847Z,100932.09
2023-05-04T14:27:43.782Z,100947.63
2023-05-04T14:30:12.714Z,100945.16
2023-05-04T14:32:42.682Z,100949.75
2023-05-04T14:35:12.312Z,100941.81
2023-05-04T14:37:41.049Z,100949.69
2023-05-04T14:40:10.399Z,100947.84
2023-05-04T14:42:38.843Z,100946.16
2023-05-04T14:45:08.361Z,100958.75
2023-05-04T14:47:36.458Z,100953.28
2023-05-04T14:50:07.128Z,100955.31
2023-05-04T14:52:35.014Z,100941.31
2023-05-04T14:55:02.844Z,100955.00
2023-05-04T14:57:30.596Z,100956.28
2023-05-04T14:59:58.328Z,100947.72
2023-05-04T15:02:26.484Z,100952.94
2023-05-04T15:04:54.236Z,100954.50
2023-05-04T15:07:23.489Z,100953.38
2023-05-04T15:09:51.202Z,100957.69
2023-05-04T15:12:18.990Z,100953.03
2023-05-04T15:14:47.052Z,100958.84
2023-05-04T15:17:14.794Z,100962.97
2023-05-04T15:19:43.625Z,100964.00
2023-05-04T15:22:11.366Z,100961.31
2023-05-04T15:24:40.384Z,100957.56
2023-05-04T15:27:08.115Z,100961.28
2023-05-04T15:29:35.849Z,100957.28
2023-05-04T15:32:03.574Z,100963.28
2023-05-04T15:34:31.347Z,100965.03
2023-05-04T15:36:59.095Z,100964.16
2023-05-04T15:39:27.473Z,100966.31
2023-05-04T15:41:56.567Z,100972.16
2023-05-04T15:44:26.021Z,100974.72
2023-05-04T15:46:53.721Z,100974.59
2023-05-04T15:49:21.470Z,100976.72
2023-05-04T15:51:49.130Z,100984.44
2023-05-04T15:54:16.863Z,100982.69
2023-05-04T15:56:44.896Z,100982.59
2023-05-04T15:59:16.838Z,100985.47
2023-05-04T16:01:44.636Z,100984.19
2023-05-04T16:04:12.639Z,100985.03
2023-05-04T16:06:40.699Z,100980.75
2023-05-04T16:09:08.362Z,100980.19
2023-05-04T16:11:37.387Z,100981.03
2023-05-04T16:14:05.068Z,100996.63
2023-05-04T16:16:34.270Z,101005.72
2023-05-04T16:19:01.989Z,100993.56
2023-05-04T16:21:30.085Z,101007.16
2023-05-04T16:23:57.756Z,101006.31
2023-05-04T16:26:25.415Z,101004.84
2023-05-04T16:28:53.164Z,101005.88
2023-05-04T16:31:20.936Z,101007.06
2023-05-04T16:33:50.036Z,101008.78
2023-05-04T16:36:17.719Z,101002.69
2023-05-04T16:38:45.745Z,101011.63
2023-05-04T16:41:13.424Z,101016.56
2023-05-04T16:43:41.147Z,101016.56
2023-05-04T16:46:09.008Z,101013.63
2023-05-04T16:48:37.942Z,101018.63
2023-05-04T16:51:08.147Z,101015.25
2023-05-04T16:53:35.960Z,101024.97
2023-05-04T16:56:04.284Z,101027.06
2023-05-04T16:58:32.031Z,101031.75
2023-05-04T17:00:59.727Z,101017.78
2023-05-04T17:03:27.880Z,101021.97
2023-05-04T17:05:55.647Z,101023.44
2023-05-04T17:08:25.150Z,101017.53
2023-05-04T17:10:52.868Z,101011.66
2023-05-04T17:13:20.665Z,101014.25
2023-05-04T17:15:48.383Z,101019.31
2023-05-04T17:18:16.109Z,101011.75
2023-05-04T17:20:43.839Z,101020.56
2023-05-04T17:23:11.623Z,101015.75
2023-05-04T17:25:41.507Z,101016.84
2023-05-04T17:28:09.204Z,101013.13
2023-05-04T17:30:37.172Z,101020.09
2023-05-04T17:33:05.139Z,101017.66
2023-05-04T17:35:32.870Z,101013.88
2023-05-04T17:38:00.603Z,101015.94
2023-05-04T17:40:29.381Z,101019.25
2023-05-04T17:42:58.682Z,101013.06
2023-05-04T17:45:26.775Z,101022.00
2023-05-04T17:47:54.897Z,101022.19
2023-05-04T17:50:23.585Z,101025.78
2023-05-04T17:52:55.137Z,101019.16
2023-05-04T17:55:24.542Z,101027.72
2023-05-04T17:57:53.600Z,101034.81
2023-05-04T18:00:23.529Z,101030.94
2023-05-04T18:02:51.404Z,101032.28
2023-05-04T18:05:19.270Z,101030.19
2023-05-04T18:07:46.978Z,101038.19
2023-05-04T18:10:14.718Z,101041.00
2023-05-04T18:12:42.487Z,101043.94
2023-05-04T18:15:10.998Z,101042.97
2023-05-04T18:17:40.109Z,101053.94
2023-05-04T18:20:10.304Z,101049.84
2023-05-04T18:22:38.248Z,101058.03
2023-05-04T18:25:06.944Z,101054.06
2023-05-04T18:27:35.090Z,101064.34
2023-05-04T18:30:03.713Z,101064.13
2023-05-04T18:32:31.578Z,101067.25
2023-05-04T18:35:01.469Z,101071.63
2023-05-04T18:37:30.642Z,101074.84
2023-05-04T18:39:58.914Z,101078.16
2023-05-04T18:42:27.008Z,101080.97
2023-05-04T18:44:55.200Z,101074.59
2023-05-04T18:47:22.979Z,101076.19
2023-05-04T18:49:52.158Z,101080.47
2023-05-04T18:52:21.578Z,101079.41
2023-05-04T18:54:49.582Z,101089.09
2023-05-04T18:57:17.341Z,101091.88
2023-05-04T18:59:45.131Z,101084.97
2023-05-04T19:02:13.008Z,101081.59
2023-05-04T19:04:40.709Z,101085.44
2023-05-04T19:07:09.766Z,101088.41
2023-05-04T19:09:38.952Z,101078.78
2023-05-04T19:12:07.292Z,101088.56
2023-05-04T19:14:34.958Z,101092.94
2023-05-04T19:17:04.873Z,101103.13
2023-05-04T19:19:36.349Z,101110.28
2023-05-04T19:22:04.368Z,101123.97
2023-05-04T19:24:34.331Z,101123.50
2023-05-04T19:27:03.704Z,101124.22
2023-05-04T19:29:31.491Z,101131.59
2023-05-04T19:32:01.293Z,101132.19
2023-05-04T19:34:33.611Z,101135.50
2023-05-04T19:37:01.362Z,101139.34
2023-05-04T19:39:29.474Z,101136.44
2023-05-04T19:41:57.244Z,101138.59
2023-05-04T19:44:26.271Z,101136.75
2023-05-04T19:46:54.030Z,101136.56
2023-05-04T19:49:22.277Z,101137.44
2023-05-04T19:51:49.980Z,101137.91
2023-05-04T19:54:17.734Z,101134.69
2023-05-04T19:56:45.472Z,101141.09
2023-05-04T19:59:13.259Z,101136.88
2023-05-04T20:01:42.357Z,101139.06
2023-05-04T20:04:10.145Z,101137.56
2023-05-04T20:06:37.971Z,101143.19
2023-05-04T20:09:05.786Z,101142.91
2023-05-04T20:11:33.764Z,101135.16
2023-05-04T20:14:01.436Z,101145.16
2023-05-04T20:16:29.226Z,101144.38
2023-05-04T20:18:58.738Z,101158.00
2023-05-04T20:21:27.887Z,101160.16
2023-05-04T20:23:55.737Z,101161.63
2023-05-04T20:26:23.652Z,101156.00
2023-05-04T20:28:51.402Z,101165.16
2023-05-04T20:31:19.178Z,101166.84
2023-05-04T20:33:46.844Z,101170.09
2023-05-04T20:36:15.996Z,101172.03
2023-05-04T20:38:43.647Z,101175.09
2023-05-04T20:41:11.949Z,101167.31
2023-05-04T20:43:39.738Z,101171.00
2023-05-04T20:46:07.904Z,101171.41
2023-05-04T20:48:35.655Z,101173.16
2023-05-04T20:51:14.028Z,101167.84
2023-05-04T20:53:44.372Z,101170.97
2023-05-04T20:56:12.338Z,101163.75
2023-05-04T20:58:40.028Z,101154.28
2023-05-04T21:01:08.025Z,101164.50
2023-05-04T21:03:36.290Z,101154.16
2023-05-04T21:06:05.031Z,101161.72
2023-05-04T21:08:32.772Z,101153.41
2023-05-04T21:11:01.875Z,101152.53
2023-05-04T21:13:29.663Z,101147.16
2023-05-04T21:15:59.368Z,101149.31
2023-05-04T21:18:27.196Z,101136.91
2023-05-04T21:20:55.083Z,101141.00
2023-05-04T21:23:23.660Z,101139.47
2023-05-04T21:25:51.368Z,101137.56
2023-05-04T21:28:20.496Z,101134.31
2023-05-04T21:30:48.242Z,101131.31
2023-05-04T21:33:15.923Z,101137.53
2023-05-04T21:35:43.782Z,101139.59
2023-05-04T21:38:11.523Z,101136.97
2023-05-04T21:40:39.261Z,101128.78
2023-05-04T21:43:07.153Z,101140.78
2023-05-04T21:45:36.251Z,101132.94
2023-05-04T21:48:04.894Z,101135.97
2023-05-04T21:50:33.079Z,101130.81
2023-05-04T21:53:00.823Z,101137.06
2023-05-04T21:55:30.377Z,101147.91
2023-05-04T21:57:58.352Z,101146.03
2023-05-04T22:00:26.478Z,101150.13
2023-05-04T22:02:56.417Z,101144.63
2023-05-04T22:05:24.278Z,101153.22
2023-05-04T22:07:51.978Z,101164.09
2023-05-04T22:10:19.770Z,101157.84
2023-05-04T22:12:47.601Z,101155.38
2023-05-04T22:15:15.549Z,101155.91
2023-05-04T22:17:43.280Z,101159.69
2023-05-04T22:20:13.898Z,101153.31
2023-05-04T22:22:41.616Z,101151.13
2023-05-04T22:25:10.015Z,101150.44
2023-05-04T22:27:37.681Z,101149.56
2023-05-04T22:30:06.602Z,101150.81
2023-05-04T22:32:35.209Z,101158.78
2023-05-04T22:35:03.268Z,101148.66
2023-05-04T22:37:32.365Z,101154.09
2023-05-04T22:40:00.875Z,101149.50
2023-05-04T22:42:29.004Z,101150.44
2023-05-04T22:44:56.874Z,101152.81
2023-05-04T22:47:24.657Z,101138.44
2023-05-04T22:49:55.011Z,101147.56
2023-05-04T22:52:23.141Z,101151.97
2023-05-04T22:54:52.743Z,101158.47
2023-05-04T22:57:20.771Z,101163.06
2023-05-04T22:59:48.548Z,101155.09
2023-05-04T23:02:16.538Z,101151.16
2023-05-04T23:04:44.748Z,101155.34
2023-05-04T23:07:12.826Z,101154.06
2023-05-04T23:09:43.271Z,101152.75
2023-05-04T23:12:12.490Z,101156.84
2023-05-04T23:14:40.276Z,101166.47
2023-05-04T23:17:08.140Z,101159.34
2023-05-04T23:19:36.041Z,101151.56
2023-05-04T23:22:03.846Z,101143.16
2023-05-04T23:24:31.562Z,101145.00
2023-05-04T23:26:59.793Z,101137.50
2023-05-04T23:29:28.974Z,101143.88
2023-05-04T23:31:56.798Z,101144.63
2023-05-04T23:34:24.667Z,101149.47
2023-05-04T23:36:54.189Z,101157.63
2023-05-04T23:39:21.988Z,101157.84
2023-05-04T23:41:49.779Z,101167.25
2023-05-04T23:44:17.484Z,101171.88
2023-05-04T23:46:46.522Z,101169.41
2023-05-04T23:49:14.244Z,101173.00
2023-05-04T23:51:42.003Z,101168.56
2023-05-04T23:54:10.544Z,101162.56
2023-05-04T23:56:38.317Z,101154.34
2023-05-04T23:59:06.015Z,101159.09
